createdAt,value
2019-04-30T00:01:36.808Z,20.17
2019-04-30T00:04:12.818Z,20.23
2019-04-30T00:06:45.368Z,20.37
2019-04-30T00:09:19.253Z,21.33
2019-04-30T00:11:57.982Z,21.00
2019-04-30T00:14:27.583Z,21.17
2019-04-30T00:16:58.541Z,19.83
2019-04-30T00:19:29.773Z,20.63
2019-04-30T00:22:01.077Z,19.97
2019-04-30T00:24:32.388Z,19.97
2019-04-30T00:27:05.153Z,19.67
2019-04-30T00:29:36.527Z,19.97
2019-04-30T00:32:08.105Z,20.47
2019-04-30T00:34:39.527Z,18.93
2019-04-30T00:37:13.865Z,19.53
2019-04-30T00:39:50.681Z,20.53
2019-04-30T00:42:23.980Z,19.20
2019-04-30T00:44:50.488Z,19.37
2019-04-30T00:47:21.878Z,19.27
2019-04-30T00:49:57.575Z,20.07
2019-04-30T00:52:29.554Z,18.63
2019-04-30T00:55:00.459Z,19.67
2019-04-30T00:57:36.894Z,19.30
2019-04-30T01:00:07.945Z,18.93
2019-04-30T01:03:00.933Z,18.90
2019-04-30T01:05:32.169Z,18.73
2019-04-30T01:08:04.970Z,19.97
2019-04-30T01:10:38.073Z,19.73
2019-04-30T01:13:11.901Z,19.03
2019-04-30T01:15:44.128Z,19.17
2019-04-30T01:18:15.569Z,19.23
2019-04-30T01:20:48.650Z,18.70
2019-04-30T01:23:20.125Z,19.00
2019-04-30T01:25:51.526Z,18.53
2019-04-30T01:28:24.352Z,19.00
2019-04-30T01:30:58.798Z,19.47
2019-04-30T01:33:34.613Z,18.53
2019-04-30T01:36:04.172Z,18.40
2019-04-30T01:38:40.021Z,18.67
2019-04-30T01:41:09.865Z,18.13
2019-04-30T01:43:41.097Z,19.50
2019-04-30T01:46:14.003Z,17.97
2019-04-30T01:48:50.573Z,17.47
2019-04-30T01:51:21.787Z,18.17
2019-04-30T01:53:51.792Z,18.23
2019-04-30T01:56:41.331Z,18.30
2019-04-30T01:59:18.960Z,17.70
2019-04-30T02:01:51.260Z,18.80
2019-04-30T02:04:22.605Z,18.20
2019-04-30T02:06:53.802Z,17.53
2019-04-30T02:09:25.068Z,18.00
2019-04-30T02:11:56.461Z,18.47
2019-04-30T02:14:28.706Z,18.37
2019-04-30T02:17:00.063Z,16.90
2019-04-30T02:19:31.311Z,18.80
2019-04-30T02:22:02.743Z,17.80
2019-04-30T02:24:33.942Z,17.03
2019-04-30T02:27:05.206Z,17.53
2019-04-30T02:29:39.637Z,17.43
2019-04-30T02:32:10.850Z,18.07
2019-04-30T02:35:00.444Z,18.57
2019-04-30T02:37:36.406Z,17.27
2019-04-30T02:40:09.949Z,18.33
2019-04-30T02:42:40.931Z,19.10
2019-04-30T02:45:12.346Z,18.43
2019-04-30T02:47:43.638Z,17.27
2019-04-30T02:50:18.870Z,18.53
2019-04-30T02:52:50.418Z,17.60
2019-04-30T02:55:41.970Z,16.77
2019-04-30T02:58:13.369Z,17.70
2019-04-30T03:00:44.720Z,18.07
2019-04-30T03:03:16.090Z,17.77
2019-04-30T03:05:49.693Z,17.90
2019-04-30T03:08:20.695Z,17.40
2019-04-30T03:10:52.839Z,17.60
2019-04-30T03:13:24.313Z,18.27
2019-04-30T03:15:55.517Z,17.47
2019-04-30T03:18:34.711Z,17.67
2019-04-30T03:21:09.794Z,17.63
2019-04-30T03:23:41.021Z,17.57
2019-04-30T03:26:13.542Z,17.40
2019-04-30T03:28:45.044Z,17.97
2019-04-30T03:31:16.480Z,17.93
2019-04-30T03:33:51.979Z,17.80
2019-04-30T03:36:21.913Z,17.97
2019-04-30T03:38:54.577Z,18.10
2019-04-30T03:41:25.819Z,17.40
2019-04-30T03:44:16.064Z,17.07
2019-04-30T03:46:30.142Z,17.63
2019-04-30T03:49:01.717Z,17.27
2019-04-30T03:51:32.996Z,17.50
2019-04-30T03:54:04.307Z,17.30
2019-04-30T03:56:35.677Z,18.63
2019-04-30T03:59:10.672Z,17.57
2019-04-30T04:02:00.299Z,17.27
2019-04-30T04:04:34.260Z,17.52
2019-04-30T04:07:16.480Z,17.57
2019-04-30T04:09:55.536Z,17.87
2019-04-30T04:12:30.037Z,18.83
2019-04-30T04:15:03.951Z,19.10
2019-04-30T04:17:35.117Z,18.97
2019-04-30T04:20:07.090Z,19.23
2019-04-30T04:22:40.378Z,20.33
2019-04-30T04:25:13.184Z,20.50
2019-04-30T04:27:45.124Z,19.03
2019-04-30T04:30:16.394Z,19.40
2019-04-30T04:32:50.111Z,19.73
2019-04-30T04:35:21.211Z,17.93
2019-04-30T04:37:52.885Z,17.90
2019-04-30T04:40:24.121Z,17.77
2019-04-30T04:42:55.362Z,17.70
2019-04-30T04:45:26.688Z,16.37
2019-04-30T04:48:00.106Z,17.03
2019-04-30T04:50:31.330Z,16.80
2019-04-30T04:53:02.731Z,15.63
2019-04-30T04:55:34.411Z,15.27
2019-04-30T04:58:06.177Z,15.73
2019-04-30T05:00:39.211Z,15.03
2019-04-30T05:03:12.472Z,15.27
2019-04-30T05:05:43.810Z,14.37
2019-04-30T05:08:15.200Z,14.43
2019-04-30T05:10:47.058Z,14.07
2019-04-30T05:13:19.184Z,13.87
2019-04-30T05:15:51.543Z,14.10
2019-04-30T05:18:23.882Z,13.50
2019-04-30T05:20:59.043Z,12.59
2019-04-30T05:23:30.521Z,12.93
2019-04-30T05:26:02.212Z,12.93
2019-04-30T05:28:33.711Z,12.40
2019-04-30T05:31:05.074Z,12.03
2019-04-30T05:33:36.417Z,11.53
2019-04-30T05:36:09.304Z,12.03
2019-04-30T05:38:41.013Z,11.70
2019-04-30T05:41:12.654Z,11.50
2019-04-30T05:43:44.165Z,11.27
2019-04-30T05:46:15.559Z,11.90
2019-04-30T05:48:46.852Z,11.30
2019-04-30T05:51:21.024Z,11.30
2019-04-30T05:53:52.204Z,10.90
2019-04-30T05:56:23.596Z,10.33
2019-04-30T05:58:55.250Z,10.50
2019-04-30T06:01:26.933Z,11.00
2019-04-30T06:03:59.491Z,10.10
2019-04-30T06:06:33.559Z,10.03
2019-04-30T06:09:14.456Z,8.93
2019-04-30T06:11:59.178Z,9.67
2019-04-30T06:14:32.474Z,9.85
2019-04-30T06:17:09.782Z,9.80
2019-04-30T06:19:41.342Z,9.03
2019-04-30T06:22:32.558Z,8.37
2019-04-30T06:25:05.027Z,8.10
2019-04-30T06:27:36.460Z,8.50
2019-04-30T06:30:11.855Z,8.70
2019-04-30T06:32:41.420Z,8.27
2019-04-30T06:35:13.409Z,7.90
2019-04-30T06:37:44.876Z,7.17
2019-04-30T06:40:16.508Z,8.07
2019-04-30T06:42:49.579Z,7.93
2019-04-30T06:45:21.307Z,8.10
2019-04-30T06:47:53.630Z,8.13
2019-04-30T06:50:25.098Z,7.53
2019-04-30T06:52:58.927Z,7.63
2019-04-30T06:55:30.943Z,7.00
2019-04-30T06:58:11.820Z,7.57
2019-04-30T07:00:36.767Z,6.80
2019-04-30T07:03:09.575Z,6.40
2019-04-30T07:05:41.518Z,7.03
2019-04-30T07:08:39.600Z,7.00
2019-04-30T07:11:22.358Z,6.80
2019-04-30T07:13:53.676Z,6.93
2019-04-30T07:16:25.201Z,6.93
2019-04-30T07:18:58.508Z,6.33
2019-04-30T07:21:31.605Z,6.80
2019-04-30T07:24:03.281Z,6.43
2019-04-30T07:26:34.761Z,6.30
2019-04-30T07:29:06.224Z,6.33
2019-04-30T07:31:39.255Z,6.13
2019-04-30T07:34:10.737Z,6.50
2019-04-30T07:36:48.539Z,5.97
2019-04-30T07:39:15.631Z,6.63
2019-04-30T07:41:49.016Z,6.73
2019-04-30T07:44:30.964Z,6.47
2019-04-30T07:46:54.485Z,6.53
2019-04-30T07:49:45.953Z,6.57
2019-04-30T07:52:01.384Z,6.47
2019-04-30T07:54:32.554Z,6.90
2019-04-30T07:57:04.115Z,6.47
2019-04-30T07:59:35.411Z,6.90
2019-04-30T08:02:13.694Z,6.40
2019-04-30T08:04:47.701Z,6.87
2019-04-30T08:07:19.872Z,6.60
2019-04-30T08:09:51.628Z,6.80
2019-04-30T08:12:30.494Z,7.00
2019-04-30T08:14:56.927Z,6.37
2019-04-30T08:17:28.902Z,6.50
2019-04-30T08:20:00.501Z,6.73
2019-04-30T08:22:31.912Z,6.40
2019-04-30T08:25:04.125Z,6.60
2019-04-30T08:27:35.338Z,6.80
2019-04-30T08:30:20.691Z,6.73
2019-04-30T08:32:40.564Z,7.17
2019-04-30T08:35:12.393Z,6.93
2019-04-30T08:37:43.824Z,6.80
2019-04-30T08:40:15.333Z,6.20
2019-04-30T08:42:46.795Z,6.70
2019-04-30T08:45:19.651Z,6.50
2019-04-30T08:47:51.485Z,6.00
2019-04-30T08:50:22.876Z,6.00
2019-04-30T08:52:54.839Z,5.90
2019-04-30T08:55:26.300Z,5.50
2019-04-30T08:58:09.649Z,6.50
2019-04-30T09:00:30.902Z,5.20
2019-04-30T09:03:02.445Z,5.80
2019-04-30T09:05:35.634Z,5.67
2019-04-30T09:08:09.620Z,5.90
2019-04-30T09:10:41.117Z,5.20
2019-04-30T09:13:12.305Z,5.13
2019-04-30T09:15:43.924Z,5.47
2019-04-30T09:18:15.665Z,5.80
2019-04-30T09:20:47.031Z,5.80
2019-04-30T09:23:18.755Z,5.27
2019-04-30T09:25:50.687Z,5.70
2019-04-30T09:28:22.127Z,6.40
2019-04-30T09:30:55.477Z,6.07
2019-04-30T09:33:26.664Z,6.33
2019-04-30T09:35:59.566Z,6.43
2019-04-30T09:38:31.178Z,5.97
2019-04-30T09:41:02.829Z,6.03
2019-04-30T09:43:34.147Z,6.77
2019-04-30T09:46:15.434Z,6.40
2019-04-30T09:48:39.052Z,6.37
2019-04-30T09:51:11.078Z,6.57
2019-04-30T09:53:55.027Z,6.63
2019-04-30T09:56:16.478Z,5.30
2019-04-30T09:58:49.271Z,5.53
2019-04-30T10:01:22.130Z,6.53
2019-04-30T10:03:55.073Z,6.53
2019-04-30T10:06:37.137Z,6.90
2019-04-30T10:08:59.885Z,7.47
2019-04-30T10:11:50.078Z,7.13
2019-04-30T10:14:21.482Z,7.00
2019-04-30T10:16:54.722Z,7.50
2019-04-30T10:19:26.089Z,7.27
2019-04-30T10:21:58.980Z,6.53
2019-04-30T10:24:30.498Z,6.20
2019-04-30T10:27:01.872Z,5.87
2019-04-30T10:29:33.389Z,5.27
2019-04-30T10:32:04.732Z,5.20
2019-04-30T10:34:36.228Z,5.80
2019-04-30T10:37:09.002Z,5.30
2019-04-30T10:39:40.417Z,5.40
2019-04-30T10:42:11.835Z,5.27
2019-04-30T10:44:43.365Z,5.57
2019-04-30T10:47:15.656Z,4.83
2019-04-30T10:49:48.673Z,4.93
2019-04-30T10:52:20.297Z,4.63
2019-04-30T10:54:51.678Z,5.00
2019-04-30T10:57:23.063Z,5.40
2019-04-30T10:59:55.787Z,5.23
2019-04-30T11:02:28.818Z,5.30
2019-04-30T11:05:00.316Z,4.83
2019-04-30T11:07:31.832Z,5.10
2019-04-30T11:10:05.723Z,4.97
2019-04-30T11:12:39.089Z,5.47
2019-04-30T11:15:10.457Z,5.00
2019-04-30T11:17:42.176Z,5.13
2019-04-30T11:20:13.940Z,5.20
2019-04-30T11:22:45.557Z,5.13
2019-04-30T11:25:17.363Z,5.07
2019-04-30T11:27:51.263Z,5.33
2019-04-30T11:30:24.290Z,5.77
2019-04-30T11:32:56.313Z,7.70
2019-04-30T11:35:29.690Z,6.80
2019-04-30T11:38:02.585Z,5.07
2019-04-30T11:40:36.870Z,5.10
2019-04-30T11:43:07.254Z,5.23
2019-04-30T11:45:54.692Z,4.73
2019-04-30T11:48:26.013Z,4.77
2019-04-30T11:50:59.424Z,5.30
2019-04-30T11:53:31.496Z,4.80
2019-04-30T11:56:02.833Z,4.80
2019-04-30T11:58:34.260Z,5.00
2019-04-30T12:01:09.380Z,4.90
2019-04-30T12:03:40.991Z,5.10
2019-04-30T12:06:12.396Z,5.27
2019-04-30T12:09:00.483Z,6.40
2019-04-30T12:11:39.958Z,6.60
2019-04-30T12:14:11.244Z,5.80
2019-04-30T12:16:42.474Z,5.70
2019-04-30T12:19:14.242Z,6.37
2019-04-30T12:21:45.902Z,5.07
2019-04-30T12:24:17.366Z,5.10
2019-04-30T12:26:48.997Z,5.20
2019-04-30T12:29:21.707Z,5.47
2019-04-30T12:31:53.081Z,4.90
2019-04-30T12:34:24.325Z,5.27
2019-04-30T12:36:55.627Z,5.10
2019-04-30T12:39:28.411Z,5.17
2019-04-30T12:42:02.144Z,4.87
2019-04-30T12:44:33.745Z,5.03
2019-04-30T12:47:04.986Z,4.83
2019-04-30T12:49:53.460Z,5.23
2019-04-30T12:52:30.004Z,5.10
2019-04-30T12:55:15.465Z,5.53
2019-04-30T12:57:58.274Z,5.30
2019-04-30T13:00:21.614Z,4.83
2019-04-30T13:02:53.279Z,4.50
2019-04-30T13:05:24.620Z,5.23
2019-04-30T13:07:56.944Z,4.40
2019-04-30T13:10:30.507Z,4.40
2019-04-30T13:13:02.576Z,4.30
2019-04-30T13:15:34.758Z,4.50
2019-04-30T13:18:06.353Z,4.80
2019-04-30T13:20:39.194Z,4.90
2019-04-30T13:23:10.860Z,4.20
2019-04-30T13:25:51.061Z,4.50
2019-04-30T13:28:26.625Z,4.43
2019-04-30T13:30:59.281Z,4.63
2019-04-30T13:33:42.112Z,4.80
2019-04-30T13:36:13.609Z,4.83
2019-04-30T13:38:52.201Z,5.00
2019-04-30T13:41:25.061Z,5.03
2019-04-30T13:43:58.770Z,5.42
2019-04-30T13:46:30.574Z,5.10
2019-04-30T13:49:02.047Z,4.60
2019-04-30T13:51:33.514Z,5.50
2019-04-30T13:54:05.135Z,5.73
2019-04-30T13:56:37.026Z,5.17
2019-04-30T13:59:08.715Z,4.70
2019-04-30T14:01:40.117Z,4.27
2019-04-30T14:04:16.482Z,4.57
2019-04-30T14:06:49.824Z,5.30
2019-04-30T14:09:23.265Z,5.33
2019-04-30T14:11:54.783Z,5.43
2019-04-30T14:14:26.296Z,5.00
2019-04-30T14:16:58.694Z,4.90
2019-04-30T14:19:31.295Z,4.57
2019-04-30T14:22:02.976Z,5.00
2019-04-30T14:24:36.014Z,5.03
2019-04-30T14:27:08.983Z,5.00
2019-04-30T14:29:40.387Z,4.77
2019-04-30T14:32:12.797Z,5.17
2019-04-30T14:34:44.148Z,5.20
2019-04-30T14:37:15.725Z,4.93
2019-04-30T14:39:47.337Z,4.93
2019-04-30T14:42:20.482Z,4.87
2019-04-30T14:45:04.224Z,5.40
2019-04-30T14:47:53.402Z,5.10
2019-04-30T14:50:28.576Z,4.87
2019-04-30T14:53:04.664Z,5.10
2019-04-30T14:55:39.306Z,5.60
2019-04-30T14:58:29.287Z,5.73
2019-04-30T15:01:05.763Z,7.80
2019-04-30T15:03:39.374Z,5.43
2019-04-30T15:06:10.730Z,9.20
2019-04-30T15:08:42.065Z,12.20
2019-04-30T15:11:13.764Z,8.17
2019-04-30T15:13:45.279Z,5.50
2019-04-30T15:16:16.765Z,5.40
2019-04-30T15:18:48.072Z,7.70
2019-04-30T15:21:19.637Z,8.20
2019-04-30T15:24:00.896Z,5.90
2019-04-30T15:26:29.031Z,8.13
2019-04-30T15:29:00.359Z,6.30
2019-04-30T15:31:31.817Z,7.80
2019-04-30T15:34:11.227Z,5.40
2019-04-30T15:36:42.645Z,4.67
2019-04-30T15:39:15.961Z,4.60
2019-04-30T15:41:47.728Z,5.27
2019-04-30T15:44:19.110Z,4.83
2019-04-30T15:46:50.406Z,4.90
2019-04-30T15:49:22.087Z,4.40
2019-04-30T15:51:53.326Z,5.20
2019-04-30T15:54:24.737Z,5.50
2019-04-30T15:56:56.057Z,6.37
2019-04-30T15:59:29.209Z,5.60
2019-04-30T16:02:02.435Z,5.27
2019-04-30T16:04:42.125Z,4.63
2019-04-30T16:07:13.584Z,5.20
2019-04-30T16:10:02.363Z,5.23
2019-04-30T16:12:52.451Z,5.23
2019-04-30T16:15:29.909Z,5.05
2019-04-30T16:18:02.728Z,4.83
2019-04-30T16:20:34.189Z,4.47
2019-04-30T16:23:05.893Z,4.93
2019-04-30T16:25:38.985Z,4.70
2019-04-30T16:28:10.655Z,4.80
2019-04-30T16:30:42.920Z,5.00
2019-04-30T16:33:15.011Z,4.93
2019-04-30T16:35:46.312Z,5.07
2019-04-30T16:38:18.382Z,5.40
2019-04-30T16:40:50.860Z,5.27
2019-04-30T16:43:22.202Z,5.47
2019-04-30T16:45:53.529Z,5.37
2019-04-30T16:48:24.724Z,4.77
2019-04-30T16:50:56.199Z,5.50
2019-04-30T16:53:27.528Z,5.53
2019-04-30T16:55:59.375Z,5.33
2019-04-30T16:58:32.614Z,5.90
2019-04-30T17:01:05.305Z,5.40
2019-04-30T17:03:38.905Z,6.13
2019-04-30T17:06:14.936Z,5.80
2019-04-30T17:09:04.749Z,6.00
2019-04-30T17:11:55.267Z,6.12
2019-04-30T17:14:28.492Z,6.35
2019-04-30T17:17:00.061Z,5.77
2019-04-30T17:19:31.565Z,5.73
2019-04-30T17:22:02.949Z,5.57
2019-04-30T17:24:34.291Z,5.97
2019-04-30T17:27:16.462Z,6.40
2019-04-30T17:29:38.780Z,4.80
2019-04-30T17:32:10.608Z,6.40
2019-04-30T17:34:42.034Z,8.30
2019-04-30T17:37:13.575Z,8.50
2019-04-30T17:39:44.911Z,8.30
2019-04-30T17:42:16.781Z,7.10
2019-04-30T17:44:56.446Z,8.37
2019-04-30T17:47:21.545Z,7.37
2019-04-30T17:49:53.028Z,10.00
2019-04-30T17:52:26.336Z,9.13
2019-04-30T17:54:59.479Z,8.60
2019-04-30T17:57:34.409Z,7.67
2019-04-30T18:00:16.033Z,7.77
2019-04-30T18:02:39.981Z,7.50
2019-04-30T18:05:11.684Z,7.40
2019-04-30T18:07:43.359Z,7.20
2019-04-30T18:10:16.964Z,7.87
2019-04-30T18:12:48.196Z,9.13
2019-04-30T18:15:21.815Z,9.83
2019-04-30T18:18:07.255Z,11.00
2019-04-30T18:20:40.535Z,11.60
2019-04-30T18:26:17.780Z,11.63
2019-04-30T18:28:48.965Z,11.03
2019-04-30T18:31:20.694Z,11.63
2019-04-30T18:33:52.176Z,10.30
2019-04-30T18:36:23.377Z,10.20
2019-04-30T18:38:54.673Z,11.23
2019-04-30T18:41:26.362Z,11.87
2019-04-30T18:43:59.573Z,10.23
2019-04-30T18:46:30.743Z,9.80
2019-04-30T18:49:02.162Z,10.97
2019-04-30T18:51:39.517Z,9.87
2019-04-30T18:54:06.745Z,10.37
2019-04-30T18:56:38.960Z,10.27
2019-04-30T18:59:11.093Z,10.27
2019-04-30T19:01:42.636Z,11.57
2019-04-30T19:04:14.013Z,10.53
2019-04-30T19:06:45.246Z,10.43
2019-04-30T19:09:34.881Z,10.10
2019-04-30T19:12:08.527Z,9.17
2019-04-30T19:14:43.762Z,9.07
2019-04-30T19:17:33.701Z,9.90
2019-04-30T19:20:18.664Z,10.00
2019-04-30T19:22:49.929Z,10.00
2019-04-30T19:25:21.166Z,10.57
2019-04-30T19:27:52.398Z,11.00
2019-04-30T19:30:23.658Z,11.10
2019-04-30T19:32:54.955Z,12.67
2019-04-30T19:35:26.273Z,13.43
2019-04-30T19:37:59.249Z,15.03
2019-04-30T19:40:30.681Z,18.90
2019-04-30T19:43:01.937Z,19.10
2019-04-30T19:45:34.192Z,21.60
2019-04-30T19:48:05.534Z,23.43
2019-04-30T19:50:36.990Z,24.17
2019-04-30T19:53:08.782Z,23.60
2019-04-30T19:55:40.157Z,24.33
2019-04-30T19:58:24.782Z,26.87
2019-04-30T20:00:44.732Z,28.17
2019-04-30T20:03:16.032Z,29.00
2019-04-30T20:05:47.413Z,40.47
2019-04-30T20:08:19.856Z,34.20
2019-04-30T20:10:51.593Z,39.00
2019-04-30T20:13:36.177Z,42.67
2019-04-30T20:15:56.192Z,50.47
2019-04-30T20:18:29.238Z,43.47
2019-04-30T20:21:02.577Z,41.97
2019-04-30T20:23:34.172Z,36.50
2019-04-30T20:26:05.461Z,34.10
2019-04-30T20:28:39.952Z,33.40
2019-04-30T20:31:11.580Z,31.93
2019-04-30T20:45:06.037Z,30.85
2019-04-30T20:47:37.266Z,28.80
2019-04-30T20:50:08.689Z,27.93
2019-04-30T20:52:40.008Z,24.67
2019-04-30T20:55:11.407Z,24.27
2019-04-30T20:57:42.669Z,22.87
2019-04-30T21:00:14.089Z,26.90
2019-04-30T21:02:45.445Z,25.77
2019-04-30T21:05:16.806Z,24.17
2019-04-30T21:07:48.129Z,24.83
2019-04-30T21:10:19.922Z,25.23
2019-04-30T21:12:51.669Z,23.37
2019-04-30T21:15:22.946Z,23.20
2019-04-30T21:17:54.380Z,24.23
2019-04-30T21:20:25.620Z,24.20
2019-04-30T21:22:56.856Z,24.63
2019-04-30T21:25:29.119Z,25.17
2019-04-30T21:28:01.778Z,25.60
2019-04-30T21:30:33.013Z,24.07
2019-04-30T21:33:12.142Z,24.90
2019-04-30T21:35:48.600Z,24.17
2019-04-30T21:38:21.297Z,26.73
2019-04-30T21:40:52.600Z,27.30
2019-04-30T21:43:24.182Z,28.53
2019-04-30T21:45:55.524Z,28.80
2019-04-30T21:48:28.714Z,30.13
2019-04-30T21:51:00.187Z,27.43
2019-04-30T21:53:31.600Z,28.73
2019-04-30T21:56:03.125Z,26.97
2019-04-30T21:58:35.800Z,27.87
2019-04-30T22:01:12.541Z,27.53
2019-04-30T22:03:46.546Z,28.47
2019-04-30T22:06:19.587Z,29.27
2019-04-30T22:08:51.049Z,29.10
2019-04-30T22:11:22.484Z,29.73
2019-04-30T22:13:53.716Z,27.90
2019-04-30T22:16:24.982Z,27.97
2019-04-30T22:18:56.263Z,26.97
2019-04-30T22:21:28.306Z,25.70
2019-04-30T22:24:00.776Z,23.90
2019-04-30T22:26:31.993Z,22.57
2019-04-30T22:29:03.224Z,22.00
2019-04-30T22:31:34.510Z,21.73
2019-04-30T22:34:05.973Z,19.37
2019-04-30T22:36:39.119Z,18.03
2019-04-30T22:39:15.018Z,17.40
2019-04-30T22:41:46.422Z,17.97
2019-04-30T22:44:17.754Z,19.60
2019-04-30T22:46:49.268Z,19.57
2019-04-30T22:49:20.905Z,21.20
2019-04-30T22:51:52.477Z,22.10
2019-04-30T22:54:24.066Z,21.97
2019-04-30T22:56:55.925Z,23.47
2019-04-30T22:59:27.299Z,22.83
2019-04-30T23:02:03.170Z,24.63
2019-04-30T23:04:38.989Z,24.57
2019-04-30T23:07:10.313Z,25.77
2019-04-30T23:09:41.641Z,24.63
2019-04-30T23:12:12.852Z,25.47
2019-04-30T23:14:44.322Z,24.57
2019-04-30T23:17:15.583Z,23.87
2019-04-30T23:19:49.533Z,23.17
2019-04-30T23:22:20.373Z,23.50
2019-04-30T23:24:51.793Z,23.33
2019-04-30T23:27:23.032Z,22.13
2019-04-30T23:30:03.065Z,22.33
2019-04-30T23:32:27.578Z,22.97
2019-04-30T23:34:58.775Z,22.40
2019-04-30T23:37:30.304Z,23.17
2019-04-30T23:40:22.705Z,24.00
2019-04-30T23:42:54.115Z,22.10
2019-04-30T23:45:26.012Z,22.67
2019-04-30T23:47:57.595Z,20.53
2019-04-30T23:50:28.843Z,19.17
2019-04-30T23:53:00.298Z,20.13
2019-04-30T23:55:31.943Z,20.10
2019-04-30T23:58:03.493Z,21.90
